Time;durP1;ratioP1;P1;durP2;ratioP2;P2;SDS_P1;SDS_P2;PMS_P1;PMS_P2;Temp;Humidity;BMP_temperature;BMP_pressure;BME280_temperature;BME280_humidity;BME280_pressure;Samples;Min_cycle;Max_cycle;Signal;HPM_P1;HPM_P2
2022/11/16 00:00:20;;;;;;;16.35;11.23;;;10.80;99.90;;;;;;5112312;27;20313;-48
2022/11/16 00:02:47;;;;;;;17.95;11.75;;;10.80;99.90;;;;;;5112044;27;20467;-47
2022/11/16 00:05:13;;;;;;;16.38;10.20;;;10.80;99.90;;;;;;5114427;27;20131;-49
2022/11/16 00:07:39;;;;;;;15.13;10.77;;;10.60;99.90;;;;;;5113302;27;20043;-48
2022/11/16 00:10:06;;;;;;;16.55;11.48;;;10.60;99.90;;;;;;5113518;27;20375;-51
2022/11/16 00:12:31;;;;;;;15.25;11.15;;;10.90;99.90;;;;;;5114230;27;20118;-46
2022/11/16 00:14:57;;;;;;;15.15;11.18;;;10.90;99.90;;;;;;5112832;27;20130;-46
2022/11/16 00:17:22;;;;;;;15.43;11.43;;;10.80;99.90;;;;;;5112380;28;20035;-46
2022/11/16 00:19:48;;;;;;;15.63;12.60;;;10.70;99.90;;;;;;5112283;28;20043;-46
2022/11/16 00:22:14;;;;;;;18.90;12.80;;;10.60;99.90;;;;;;5093630;27;20043;-48
2022/11/16 00:24:39;;;;;;;17.20;12.70;;;10.70;99.90;;;;;;5112285;28;20043;-48
2022/11/16 00:27:05;;;;;;;17.40;12.93;;;10.50;99.90;;;;;;5113446;27;20119;-48
2022/11/16 00:29:30;;;;;;;17.73;11.93;;;10.80;99.90;;;;;;5114438;27;20057;-48
2022/11/16 00:31:56;;;;;;;16.08;12.82;;;10.80;99.90;;;;;;5113271;27;20474;-52
2022/11/16 00:34:22;;;;;;;18.40;13.07;;;10.90;99.90;;;;;;5113761;27;20052;-51
2022/11/16 00:36:49;;;;;;;21.10;13.60;;;10.90;99.90;;;;;;5112947;27;20245;-47
2022/11/16 00:39:15;;;;;;;16.88;11.98;;;10.60;99.90;;;;;;5113419;27;20067;-46
2022/11/16 00:41:42;;;;;;;16.90;12.90;;;10.50;99.90;;;;;;5111709;28;20051;-48
2022/11/16 00:44:08;;;;;;;18.88;13.93;;;10.60;99.90;;;;;;5093370;28;20043;-47
2022/11/16 00:46:34;;;;;;;18.65;13.20;;;10.50;99.90;;;;;;5112092;28;20063;-49
2022/11/16 00:49:00;;;;;;;18.65;13.43;;;10.70;99.90;;;;;;5111737;27;20484;-47
2022/11/16 00:51:25;;;;;;;19.63;13.95;;;10.40;99.90;;;;;;5111803;28;20050;-49
2022/11/16 00:53:51;;;;;;;20.65;14.48;;;10.50;99.90;;;;;;5093339;28;20039;-47
2022/11/16 00:56:17;;;;;;;19.42;14.43;;;10.60;99.90;;;;;;5112047;27;20043;-49
2022/11/16 00:58:42;;;;;;;19.15;14.45;;;10.60;99.90;;;;;;5113663;27;20039;-47
2022/11/16 01:01:10;;;;;;;20.08;14.82;;;10.80;99.90;;;;;;5112219;27;20047;-47
2022/11/16 01:03:36;;;;;;;19.60;15.48;;;10.80;99.90;;;;;;5094451;28;20039;-47
2022/11/16 01:06:04;;;;;;;19.70;14.15;;;10.50;99.90;;;;;;5113151;28;20502;-48
2022/11/16 01:08:31;;;;;;;20.45;15.68;;;10.50;99.90;;;;;;5112139;27;20048;-47
2022/11/16 01:12:07;;;;;;;19.90;15.00;;;10.60;99.90;;;;;;5094458;28;20040;-51
2022/11/16 01:13:43;;;;;;;20.45;15.05;;;10.70;99.90;;;;;;5110865;28;20068;-47
2022/11/16 01:16:12;;;;;;;23.60;15.88;;;10.50;99.90;;;;;;5110400;28;20035;-46
2022/11/16 01:18:37;;;;;;;20.70;15.15;;;10.80;99.90;;;;;;5111240;28;20088;-46
2022/11/16 01:21:05;;;;;;;20.65;15.73;;;10.50;99.90;;;;;;5110850;28;20040;-47
2022/11/16 01:23:31;;;;;;;22.52;15.73;;;11.00;99.90;;;;;;5111231;28;20046;-47
2022/11/16 01:26:00;;;;;;;21.58;16.60;;;10.80;99.90;;;;;;5113632;27;20441;-46
2022/11/16 01:28:27;;;;;;;23.95;17.55;;;10.60;99.90;;;;;;5111253;28;20097;-48
2022/11/16 01:30:53;;;;;;;22.50;15.90;;;10.60;99.90;;;;;;5110543;28;20040;-48
2022/11/16 01:33:18;;;;;;;24.33;17.45;;;10.80;99.90;;;;;;5111717;27;20142;-49
2022/11/16 01:35:44;;;;;;;23.27;16.30;;;10.60;99.90;;;;;;5111944;27;20031;-48
2022/11/16 01:38:10;;;;;;;28.05;18.40;;;10.70;99.90;;;;;;5111084;28;20040;-47
2022/11/16 01:40:36;;;;;;;25.05;18.00;;;11.10;99.90;;;;;;5111405;28;20036;-47
2022/11/16 01:43:02;;;;;;;25.40;17.42;;;10.80;99.90;;;;;;5111863;28;20035;-47
2022/11/16 01:45:40;;;;;;;27.85;18.90;;;10.90;99.90;;;;;;5111214;28;20080;-49
2022/11/16 01:48:06;;;;;;;26.65;19.05;;;10.80;99.90;;;;;;5109560;28;20722;-49
2022/11/16 01:50:33;;;;;;;26.05;18.60;;;10.50;99.90;;;;;;5111467;28;20049;-46
2022/11/16 01:53:03;;;;;;;28.80;19.77;;;11.20;99.90;;;;;;5111618;28;20031;-49
2022/11/16 01:55:32;;;;;;;31.00;20.02;;;10.70;99.90;;;;;;5111190;28;20039;-49
2022/11/16 01:57:59;;;;;;;29.98;20.23;;;10.70;99.90;;;;;;5111480;28;20031;-47
2022/11/16 02:00:25;;;;;;;30.77;20.88;;;11.00;99.90;;;;;;5110825;28;20073;-49
2022/11/16 02:02:51;;;;;;;30.30;21.05;;;10.60;99.90;;;;;;5110820;28;20055;-50
2022/11/16 02:05:20;;;;;;;33.38;22.35;;;10.70;99.90;;;;;;5110767;28;20237;-49
2022/11/16 02:11:13;;;;;;;30.88;21.83;;;10.60;99.90;;;;;;5117446;27;20319;-49
2022/11/16 02:13:53;;;;;;;29.95;21.60;;;10.60;99.90;;;;;;5116795;27;20040;-48
2022/11/16 02:16:25;;;;;;;29.75;20.88;;;11.10;99.90;;;;;;5115593;27;20036;-49
2022/11/16 02:19:05;;;;;;;31.38;21.50;;;11.00;99.90;;;;;;5115906;27;20097;-48
2022/11/16 02:21:43;;;;;;;32.40;21.85;;;11.00;99.90;;;;;;5114531;27;20063;-49
2022/11/16 02:24:52;;;;;;;32.90;22.00;;;11.10;99.90;;;;;;5115182;27;20071;-48
2022/11/16 02:27:39;;;;;;;33.75;21.30;;;11.10;99.90;;;;;;5096235;28;20035;-49
2022/11/16 02:30:05;;;;;;;30.00;21.23;;;11.10;99.90;;;;;;5096783;28;20032;-47
2022/11/16 02:32:50;;;;;;;31.90;22.27;;;10.60;99.90;;;;;;5114529;27;20035;-48
2022/11/16 02:35:25;;;;;;;;;;;11.10;99.90;;;;;;5096238;28;20550;-48
2022/11/16 02:38:10;;;;;;;34.63;22.30;;;10.80;99.90;;;;;;5113779;28;19922;-48
2022/11/16 02:40:41;;;;;;;37.65;23.77;;;10.80;99.90;;;;;;5113885;28;20489;-50
2022/11/16 02:43:11;;;;;;;32.08;21.52;;;11.10;99.90;;;;;;5116147;27;20046;-50
2022/11/16 02:45:46;;;;;;;35.63;23.77;;;11.00;99.90;;;;;;5114866;27;20039;-49
2022/11/16 02:48:18;;;;;;;34.65;22.92;;;10.90;99.90;;;;;;5114420;27;20458;-49
2022/11/16 02:50:45;;;;;;;31.40;23.70;;;11.10;99.90;;;;;;5114711;27;20036;-48
2022/11/16 02:53:11;;;;;;;37.65;24.45;;;10.60;99.90;;;;;;5102775;28;20093;-48
2022/11/16 02:55:37;;;;;;;39.25;24.02;;;10.60;99.90;;;;;;5104957;28;20390;-48
2022/11/16 02:58:05;;;;;;;36.38;23.88;;;11.10;99.90;;;;;;5103611;28;20036;-49
2022/11/16 03:01:05;;;;;;;36.00;23.13;;;10.50;99.90;;;;;;5104401;27;20047;-49
2022/11/16 03:03:39;;;;;;;36.33;23.50;;;11.00;99.90;;;;;;5104499;27;20035;-52
2022/11/16 03:06:38;;;;;;;33.65;23.83;;;11.00;99.90;;;;;;5103639;28;20056;-50
2022/11/16 03:09:09;;;;;;;34.03;23.42;;;10.90;99.90;;;;;;5104049;28;20031;-50
2022/11/16 03:11:58;;;;;;;37.83;24.45;;;11.10;99.90;;;;;;5106289;28;20393;-48
2022/11/16 03:14:46;;;;;;;36.80;23.67;;;10.50;99.90;;;;;;5112991;27;20039;-48
2022/11/16 03:17:26;;;;;;;33.80;23.85;;;11.00;99.90;;;;;;5114403;27;20035;-48
2022/11/16 03:20:07;;;;;;;34.30;24.15;;;10.60;99.90;;;;;;5112409;28;20386;-49
2022/11/16 03:22:37;;;;;;;37.55;24.48;;;11.10;99.90;;;;;;5095872;28;20173;-48
2022/11/16 03:25:04;;;;;;;35.65;24.50;;;10.60;99.90;;;;;;5114744;27;20832;-49
2022/11/16 03:27:38;;;;;;;36.55;25.83;;;10.60;99.90;;;;;;5094376;28;20053;-51
2022/11/16 03:30:09;;;;;;;34.40;23.35;;;11.20;99.90;;;;;;5114062;27;20039;-48
2022/11/16 03:32:47;;;;;;;36.95;25.00;;;10.80;99.90;;;;;;5113821;27;20111;-49
2022/11/16 03:35:30;;;;;;;37.25;24.50;;;10.90;99.90;;;;;;5113872;27;20478;-48
2022/11/16 03:37:58;;;;;;;35.78;24.17;;;10.80;99.90;;;;;;5112532;28;20363;-48
2022/11/16 03:40:27;;;;;;;34.85;25.60;;;11.00;99.90;;;;;;5113011;27;20078;-48
2022/11/16 03:42:54;;;;;;;37.28;26.40;;;10.60;99.90;;;;;;5112936;28;20047;-48
2022/11/16 03:45:20;;;;;;;36.35;25.48;;;11.00;99.90;;;;;;5115171;27;20039;-48
2022/11/16 03:47:46;;;;;;;34.42;24.88;;;11.10;99.90;;;;;;5114080;27;20494;-48
2022/11/16 03:50:12;;;;;;;41.28;26.75;;;10.60;99.90;;;;;;5114279;27;20027;-49
2022/11/16 03:52:38;;;;;;;33.83;24.33;;;11.00;99.90;;;;;;5114113;27;20521;-49
2022/11/16 03:55:04;;;;;;;36.50;26.45;;;10.70;99.90;;;;;;5113137;27;20069;-48
2022/11/16 03:57:30;;;;;;;36.08;25.00;;;10.70;99.90;;;;;;5114232;27;20102;-48
2022/11/16 03:59:56;;;;;;;36.67;25.15;;;11.20;99.90;;;;;;5112911;27;20044;-48
2022/11/16 04:02:21;;;;;;;37.67;25.92;;;11.20;99.90;;;;;;5113391;27;20043;-47
2022/11/16 04:24:26;;;;;;;40.00;25.10;;;11.00;99.90;;;;;;5114977;27;20077;-48
2022/11/16 04:29:42;;;;;;;36.10;26.40;;;10.90;99.90;;;;;;5114390;27;20081;-49
2022/11/16 04:37:53;;;;;;;35.22;25.52;;;11.10;99.90;;;;;;5112062;28;20561;-49
2022/11/16 04:40:22;;;;;;;34.00;24.30;;;10.60;99.90;;;;;;5111975;28;20501;-49
2022/11/16 04:42:52;;;;;;;31.88;25.35;;;11.10;99.90;;;;;;5112091;28;20044;-49
2022/11/16 04:48:03;;;;;;;37.13;26.17;;;11.30;99.90;;;;;;5111800;28;20042;-48
2022/11/16 04:50:29;;;;;;;31.95;24.58;;;10.60;99.90;;;;;;5113203;27;20180;-48
2022/11/16 04:52:54;;;;;;;33.33;25.58;;;11.20;99.90;;;;;;5094609;28;20074;-47
2022/11/16 04:55:20;;;;;;;33.80;24.65;;;10.60;99.90;;;;;;5113779;27;20062;-48
2022/11/16 04:57:46;;;;;;;35.97;25.25;;;11.10;99.90;;;;;;5112512;27;20110;-53
2022/11/16 05:00:12;;;;;;;35.42;25.65;;;11.10;99.90;;;;;;5113334;27;20420;-51
2022/11/16 05:02:38;;;;;;;34.50;24.55;;;11.10;99.90;;;;;;5112136;27;20470;-49
2022/11/16 05:05:04;;;;;;;35.20;25.17;;;11.00;99.90;;;;;;5112123;27;20035;-48
2022/11/16 05:07:30;;;;;;;37.03;26.55;;;10.70;99.90;;;;;;5112256;27;20487;-49
2022/11/16 05:09:55;;;;;;;39.28;27.45;;;10.90;99.90;;;;;;5110513;28;20032;-48
2022/11/16 05:12:25;;;;;;;36.72;25.20;;;10.60;99.90;;;;;;5111485;28;20118;-50
2022/11/16 05:14:52;;;;;;;39.90;25.75;;;11.20;99.90;;;;;;5111004;28;20043;-52
2022/11/16 05:17:18;;;;;;;36.42;24.38;;;10.60;99.90;;;;;;5111766;28;20050;-49
2022/11/16 05:22:28;;;;;;;32.33;23.27;;;10.60;99.90;;;;;;5113256;27;20059;-48
2022/11/16 05:24:54;;;;;;;36.20;23.92;;;11.10;99.90;;;;;;5109975;28;20043;-48
2022/11/16 05:27:21;;;;;;;34.22;24.45;;;11.20;99.90;;;;;;5112096;28;20465;-49
2022/11/16 05:29:50;;;;;;;30.50;22.52;;;11.30;99.90;;;;;;5112972;27;20073;-47
2022/11/16 05:32:17;;;;;;;31.42;22.60;;;11.20;99.90;;;;;;5112117;27;20035;-48
2022/11/16 05:34:43;;;;;;;33.38;22.70;;;10.60;99.90;;;;;;5112425;28;20096;-48
2022/11/16 05:37:09;;;;;;;34.95;23.38;;;11.00;99.90;;;;;;5111724;28;20044;-50
2022/11/16 05:39:34;;;;;;;32.90;22.70;;;10.70;99.90;;;;;;5111232;28;20143;-52
2022/11/16 05:42:01;;;;;;;33.17;21.83;;;11.10;99.90;;;;;;5111340;28;20110;-51
2022/11/16 05:44:26;;;;;;;27.38;20.42;;;10.80;99.90;;;;;;5092933;28;20101;-52
2022/11/16 05:46:54;;;;;;;26.73;19.17;;;10.80;99.90;;;;;;5110614;28;20035;-50
2022/11/16 05:49:19;;;;;;;22.48;17.08;;;11.00;99.90;;;;;;5111239;28;20394;-49
2022/11/16 05:51:46;;;;;;;25.15;17.77;;;11.10;99.90;;;;;;5110951;28;20041;-50
2022/11/16 05:54:13;;;;;;;27.90;19.90;;;10.70;99.90;;;;;;5102495;28;20036;-50
2022/11/16 05:56:39;;;;;;;26.30;18.25;;;10.70;99.90;;;;;;5109300;28;20096;-51
2022/11/16 05:59:05;;;;;;;27.98;20.02;;;10.60;99.90;;;;;;5109089;28;20031;-49
2022/11/16 06:01:30;;;;;;;27.80;19.77;;;10.60;99.90;;;;;;5111900;28;20040;-49
2022/11/16 06:04:00;;;;;;;25.02;18.75;;;10.90;99.90;;;;;;5095036;28;20035;-49
2022/11/16 06:06:27;;;;;;;28.98;18.38;;;10.60;99.90;;;;;;5111486;28;20152;-49
2022/11/16 06:08:53;;;;;;;24.38;17.15;;;10.60;99.90;;;;;;5112339;28;20040;-49
2022/11/16 06:11:19;;;;;;;26.13;18.50;;;11.20;99.90;;;;;;5111303;28;20039;-48
2022/11/16 06:13:45;;;;;;;25.73;17.35;;;10.50;99.90;;;;;;5110464;28;20043;-51
2022/11/16 06:16:11;;;;;;;23.50;16.77;;;11.10;99.90;;;;;;5110941;28;20038;-51
2022/11/16 06:18:41;;;;;;;23.33;16.85;;;10.50;99.90;;;;;;5111195;28;20038;-51
2022/11/16 06:21:08;;;;;;;25.55;17.85;;;10.50;99.90;;;;;;5111045;28;20423;-49
2022/11/16 06:23:34;;;;;;;27.60;17.25;;;11.00;99.90;;;;;;5110388;28;20034;-49
2022/11/16 06:26:00;;;;;;;26.42;17.70;;;10.80;99.90;;;;;;5110914;28;20126;-50
2022/11/16 06:28:26;;;;;;;25.38;15.57;;;10.90;99.90;;;;;;5110579;28;20071;-50
2022/11/16 06:30:52;;;;;;;26.05;16.73;;;10.80;99.90;;;;;;5111956;28;20407;-50
2022/11/16 06:33:18;;;;;;;20.08;15.13;;;10.60;99.90;;;;;;5111894;28;20062;-52
2022/11/16 06:35:44;;;;;;;21.55;14.57;;;10.60;99.90;;;;;;5093004;28;20109;-50
2022/11/16 06:38:10;;;;;;;21.13;13.98;;;10.40;99.90;;;;;;5112607;28;20043;-52
2022/11/16 06:40:37;;;;;;;18.10;13.45;;;10.40;99.90;;;;;;5110049;28;20034;-48
2022/11/16 06:43:02;;;;;;;18.88;13.70;;;10.90;99.90;;;;;;5109916;28;20032;-52
2022/11/16 06:45:28;;;;;;;20.02;12.90;;;10.40;99.90;;;;;;5110391;28;20080;-50
2022/11/16 06:47:54;;;;;;;17.40;12.13;;;10.30;99.90;;;;;;5110912;28;20995;-49
2022/11/16 06:50:20;;;;;;;20.58;12.52;;;10.90;99.90;;;;;;5109818;28;20490;-48
2022/11/16 06:52:47;;;;;;;16.77;11.90;;;10.60;99.90;;;;;;5110283;28;20512;-49
2022/11/16 06:55:12;;;;;;;18.98;11.63;;;10.80;99.90;;;;;;5113609;27;20031;-49
2022/11/16 06:57:39;;;;;;;19.98;13.18;;;10.40;99.90;;;;;;5113837;28;20036;-50
2022/11/16 07:00:06;;;;;;;23.30;12.98;;;10.80;99.90;;;;;;5114552;27;20067;-49
2022/11/16 07:02:34;;;;;;;17.95;12.80;;;10.40;99.90;;;;;;5113630;27;20483;-48
2022/11/16 07:05:00;;;;;;;17.88;12.30;;;10.30;99.90;;;;;;5114627;27;20036;-48
2022/11/16 07:07:26;;;;;;;19.73;13.77;;;10.20;99.90;;;;;;5103629;28;20240;-48
2022/11/16 07:09:51;;;;;;;23.08;13.55;;;10.50;99.90;;;;;;5114582;28;20079;-51
2022/11/16 07:12:17;;;;;;;20.70;13.98;;;10.80;99.90;;;;;;5114666;27;20039;-49
2022/11/16 07:14:44;;;;;;;21.45;14.02;;;10.70;99.90;;;;;;5113751;27;20541;-47
2022/11/16 07:17:10;;;;;;;24.15;14.95;;;10.30;99.90;;;;;;5113719;28;20486;-49
2022/11/16 07:19:35;;;;;;;23.67;15.88;;;10.50;99.90;;;;;;5113839;28;20032;-52
2022/11/16 07:22:02;;;;;;;22.45;15.85;;;10.70;99.90;;;;;;5094786;28;20044;-51
2022/11/16 07:24:27;;;;;;;26.63;15.50;;;10.40;99.90;;;;;;5115968;27;20039;-50
2022/11/16 07:26:53;;;;;;;21.90;16.02;;;10.40;99.90;;;;;;5096244;28;20385;-49
2022/11/16 07:29:20;;;;;;;26.27;16.95;;;10.50;99.90;;;;;;5115104;27;20036;-50
2022/11/16 07:31:46;;;;;;;24.80;16.55;;;10.50;99.90;;;;;;5093614;28;20049;-49
2022/11/16 07:34:11;;;;;;;27.38;16.73;;;10.80;99.90;;;;;;5093847;28;20481;-50
2022/11/16 07:36:37;;;;;;;25.67;16.67;;;10.80;99.90;;;;;;5114078;27;20116;-50
2022/11/16 07:39:02;;;;;;;23.92;15.88;;;10.50;99.90;;;;;;5114135;27;20035;-50
2022/11/16 07:41:28;;;;;;;27.08;17.88;;;10.50;99.90;;;;;;5114342;27;20039;-49
2022/11/16 07:43:55;;;;;;;28.88;17.77;;;10.30;99.90;;;;;;5113595;27;20487;-49
2022/11/16 07:46:22;;;;;;;27.38;17.50;;;10.30;99.90;;;;;;5113433;27;20114;-50
2022/11/16 07:48:48;;;;;;;28.85;17.50;;;10.30;99.90;;;;;;5113098;27;20035;-50
2022/11/16 07:51:15;;;;;;;30.02;18.48;;;10.60;99.90;;;;;;5111275;28;20084;-48
2022/11/16 07:53:42;;;;;;;25.67;16.75;;;10.50;99.90;;;;;;5112933;28;20065;-48
2022/11/16 07:56:09;;;;;;;27.17;18.00;;;10.30;99.90;;;;;;5114096;27;20081;-50
2022/11/16 07:58:35;;;;;;;28.35;18.17;;;10.80;99.90;;;;;;5113154;27;20039;-50
2022/11/16 08:01:06;;;;;;;27.63;17.25;;;11.00;99.90;;;;;;5113298;28;20039;-51
2022/11/16 08:03:33;;;;;;;27.38;17.00;;;10.80;99.90;;;;;;5113641;27;20028;-49
2022/11/16 08:06:04;;;;;;;29.98;17.83;;;10.50;99.90;;;;;;5113578;27;20032;-51
2022/11/16 08:08:30;;;;;;;29.67;18.00;;;10.40;99.90;;;;;;5077745;28;20180;-50
2022/11/16 08:11:03;;;;;;;27.67;17.40;;;10.60;99.90;;;;;;5113531;27;20067;-50
2022/11/16 08:13:32;;;;;;;27.42;17.05;;;10.40;99.90;;;;;;5113189;27;20043;-53
2022/11/16 08:16:12;;;;;;;25.27;16.80;;;10.90;99.90;;;;;;5111485;27;20035;-48
2022/11/16 08:18:39;;;;;;;27.30;17.15;;;10.50;99.90;;;;;;5112714;28;20043;-49
2022/11/16 08:21:06;;;;;;;27.38;17.45;;;10.80;99.90;;;;;;5112695;27;20047;-50
2022/11/16 08:23:32;;;;;;;30.65;17.75;;;10.90;99.90;;;;;;5112384;27;20066;-49
2022/11/16 08:26:06;;;;;;;26.70;17.30;;;11.00;99.90;;;;;;5113665;27;20092;-51
2022/11/16 08:28:32;;;;;;;;;;;10.50;99.90;;;;;;5113339;27;20036;-49
2022/11/16 08:30:59;;;;;;;25.35;14.85;;;10.90;99.90;;;;;;5114464;27;20278;-50
2022/11/16 08:33:27;;;;;;;25.60;15.77;;;10.80;99.90;;;;;;5110823;28;20043;-48
2022/11/16 08:35:53;;;;;;;29.65;16.88;;;10.90;99.90;;;;;;5113139;27;20119;-51
2022/11/16 08:38:19;;;;;;;26.35;16.77;;;10.70;99.90;;;;;;5111935;27;20047;-49
2022/11/16 08:40:45;;;;;;;24.48;16.88;;;10.50;99.90;;;;;;5112545;27;20062;-52
2022/11/16 08:43:12;;;;;;;23.90;16.23;;;11.10;99.90;;;;;;5111723;27;20385;-49
2022/11/16 08:45:38;;;;;;;24.50;15.55;;;10.50;99.90;;;;;;5111553;28;20522;-51
2022/11/16 08:48:05;;;;;;;28.95;16.65;;;10.80;99.90;;;;;;5104386;28;20087;-50
2022/11/16 08:50:31;;;;;;;26.77;17.67;;;10.90;99.90;;;;;;5111515;28;20038;-49
2022/11/16 08:52:57;;;;;;;29.30;18.90;;;10.60;99.90;;;;;;5112981;27;20092;-48
2022/11/16 08:55:23;;;;;;;29.00;18.05;;;11.20;99.90;;;;;;5112583;27;20078;-49
2022/11/16 08:57:49;;;;;;;31.67;18.55;;;10.90;99.90;;;;;;5086384;28;20563;-49
2022/11/16 09:00:15;;;;;;;27.38;17.88;;;10.90;99.90;;;;;;5113612;27;20035;-48
2022/11/16 09:02:41;;;;;;;27.67;18.80;;;10.80;99.90;;;;;;5110369;28;20386;-48
2022/11/16 09:05:07;;;;;;;33.05;18.38;;;11.30;99.90;;;;;;5112101;27;20055;-48
2022/11/16 09:07:32;;;;;;;29.23;18.63;;;10.80;99.90;;;;;;5112898;27;20543;-49
2022/11/16 09:09:58;;;;;;;30.85;18.13;;;10.90;99.90;;;;;;5112184;27;20047;-48
2022/11/16 09:12:24;;;;;;;27.33;17.92;;;11.20;99.90;;;;;;5111175;28;20504;-49
2022/11/16 09:14:50;;;;;;;26.48;17.25;;;10.80;99.90;;;;;;5111818;27;20044;-49
2022/11/16 09:17:16;;;;;;;27.00;17.60;;;10.80;99.90;;;;;;5075376;28;20035;-49
2022/11/16 09:19:41;;;;;;;25.45;17.98;;;11.30;99.90;;;;;;5092898;28;20035;-50
2022/11/16 09:22:07;;;;;;;28.63;17.95;;;11.00;99.90;;;;;;5111120;28;20506;-48
2022/11/16 09:24:33;;;;;;;28.00;17.98;;;11.10;99.90;;;;;;5112413;27;20433;-51
2022/11/16 09:27:02;;;;;;;24.33;16.83;;;10.70;99.90;;;;;;5112385;27;20422;-47
2022/11/16 09:29:28;;;;;;;25.10;16.63;;;11.40;99.90;;;;;;5113661;27;20486;-47
2022/11/16 09:31:54;;;;;;;26.73;14.82;;;11.40;99.90;;;;;;5112105;28;20081;-47
2022/11/16 09:34:20;;;;;;;26.42;16.33;;;11.00;99.90;;;;;;5113041;27;20055;-48
2022/11/16 09:36:45;;;;;;;22.27;13.90;;;11.00;99.90;;;;;;5111716;27;20355;-48
2022/11/16 09:39:12;;;;;;;22.30;14.73;;;11.30;99.90;;;;;;5112308;28;20067;-48
2022/11/16 09:41:43;;;;;;;20.13;13.52;;;11.20;99.90;;;;;;5094497;28;20044;-49
2022/11/16 09:44:47;;;;;;;20.60;12.93;;;11.20;99.90;;;;;;5111868;28;20463;-49
2022/11/16 09:47:22;;;;;;;19.50;11.98;;;11.20;99.90;;;;;;5091701;28;20036;-47
2022/11/16 09:49:53;;;;;;;18.80;11.80;;;10.90;99.90;;;;;;5111494;28;20035;-48
2022/11/16 09:52:35;;;;;;;21.48;13.27;;;10.90;99.90;;;;;;5110922;28;20403;-48
2022/11/16 09:55:19;;;;;;;17.40;12.25;;;11.10;99.90;;;;;;5110849;28;20043;-50
2022/11/16 09:57:46;;;;;;;18.65;11.82;;;11.10;99.90;;;;;;5110391;28;20050;-47
2022/11/16 10:00:17;;;;;;;19.55;11.20;;;11.20;99.90;;;;;;5111935;28;20044;-48
2022/11/16 10:02:56;;;;;;;17.80;11.38;;;11.20;99.90;;;;;;5111319;28;20046;-47
2022/11/16 10:05:29;;;;;;;17.75;11.02;;;11.20;99.90;;;;;;5092793;28;20548;-47
2022/11/16 10:08:23;;;;;;;17.38;11.38;;;11.30;99.90;;;;;;5110807;28;20048;-49
2022/11/16 10:11:21;;;;;;;14.20;8.32;;;11.20;99.90;;;;;;5109910;28;20050;-48
2022/11/16 10:14:11;;;;;;;14.77;8.10;;;11.10;99.90;;;;;;5110084;28;20060;-47
2022/11/16 10:16:48;;;;;;;14.48;8.43;;;11.20;99.90;;;;;;5110283;28;20043;-48
2022/11/16 10:19:23;;;;;;;15.52;7.88;;;11.20;99.90;;;;;;5111655;28;20039;-47
2022/11/16 10:22:19;;;;;;;13.07;6.15;;;11.40;99.90;;;;;;5113001;28;20814;-50
2022/11/16 10:24:55;;;;;;;11.05;6.00;;;11.50;99.90;;;;;;5112323;28;20036;-49
2022/11/16 10:27:23;;;;;;;12.73;5.07;;;12.00;99.90;;;;;;5112869;28;20032;-49
2022/11/16 10:30:14;;;;;;;11.02;5.50;;;12.10;99.90;;;;;;5114822;27;20570;-49
2022/11/16 10:33:01;;;;;;;9.57;5.25;;;12.10;99.90;;;;;;5113817;27;20050;-49
2022/11/16 10:35:38;;;;;;;8.70;5.60;;;11.90;99.90;;;;;;5114028;27;20517;-48
2022/11/16 10:38:12;;;;;;;12.95;5.78;;;11.80;99.90;;;;;;5114458;27;20035;-47
2022/11/16 10:40:39;;;;;;;11.20;5.72;;;11.90;99.90;;;;;;5114931;28;20083;-47
2022/11/16 10:43:16;;;;;;;11.82;5.38;;;11.60;99.90;;;;;;5114329;28;20132;-48
2022/11/16 10:46:12;;;;;;;10.93;5.07;;;11.60;99.90;;;;;;5113264;27;20034;-52
2022/11/16 10:48:54;;;;;;;11.88;4.82;;;11.40;99.90;;;;;;5113957;28;20047;-47
2022/11/16 10:51:20;;;;;;;17.50;4.78;;;11.50;99.90;;;;;;5113402;28;20047;-47
2022/11/16 10:53:46;;;;;;;9.07;4.20;;;11.60;99.90;;;;;;5097081;27;20050;-46
2022/11/16 10:56:36;;;;;;;11.88;4.30;;;11.60;99.90;;;;;;5115079;27;20570;-47
2022/11/16 10:59:08;;;;;;;12.15;3.95;;;11.60;99.90;;;;;;5116057;27;20114;-47
2022/11/16 11:01:38;;;;;;;10.63;4.05;;;11.80;99.90;;;;;;5112486;28;20044;-48
2022/11/16 11:04:25;;;;;;;9.60;3.75;;;12.00;99.90;;;;;;5096764;27;20429;-49
2022/11/16 11:06:53;;;;;;;11.35;3.67;;;12.10;99.90;;;;;;5092659;28;20054;-47
2022/11/16 11:09:31;;;;;;;13.30;3.92;;;12.30;99.90;;;;;;5094468;28;20081;-47
2022/11/16 11:15:19;;;;;;;6.97;3.20;;;12.30;99.90;;;;;;5093095;28;20510;-47
2022/11/16 11:17:46;;;;;;;13.02;4.00;;;12.20;99.90;;;;;;5093437;28;20421;-50
2022/11/16 11:20:15;;;;;;;11.48;3.58;;;12.50;99.90;;;;;;5093667;28;20115;-48
2022/11/16 11:23:01;;;;;;;14.63;3.80;;;13.00;99.90;;;;;;5092874;28;20044;-48
2022/11/16 11:25:31;;;;;;;10.05;3.72;;;13.40;99.90;;;;;;5093083;28;20032;-48
2022/11/16 11:28:22;;;;;;;7.85;3.65;;;13.60;99.90;;;;;;5092929;28;20479;-47
2022/11/16 11:31:21;;;;;;;11.90;3.70;;;13.60;99.90;;;;;;5093705;28;20498;-49
2022/11/16 11:33:58;;;;;;;11.35;3.97;;;13.50;99.90;;;;;;5091010;28;20044;-49
2022/11/16 11:36:34;;;;;;;10.43;3.72;;;13.30;99.90;;;;;;5092780;28;20060;-47
2022/11/16 11:39:11;;;;;;;8.82;3.45;;;13.00;99.90;;;;;;5092514;28;20117;-50
2022/11/16 11:41:42;;;;;;;10.60;4.22;;;12.70;99.90;;;;;;5092251;28;20036;-47
2022/11/16 11:44:19;;;;;;;8.85;3.97;;;12.60;99.90;;;;;;5074808;28;20514;-48
2022/11/16 11:46:53;;;;;;;10.70;3.55;;;12.70;99.90;;;;;;5092535;28;20044;-49
2022/11/16 11:49:28;;;;;;;;;;;12.70;99.90;;;;;;5093505;28;20062;-47
2022/11/16 11:51:58;;;;;;;9.73;3.22;;;13.00;99.90;;;;;;5093003;28;20290;-47
2022/11/16 11:54:41;;;;;;;11.15;2.63;;;13.40;99.90;;;;;;5092712;28;20047;-50
2022/11/16 11:57:14;;;;;;;8.98;3.30;;;13.60;99.90;;;;;;5092524;28;20036;-47
2022/11/16 11:59:40;;;;;;;8.87;2.90;;;13.60;99.90;;;;;;5092051;28;20044;-47
2022/11/16 12:02:24;;;;;;;11.00;3.30;;;13.50;99.90;;;;;;5092191;28;20301;-47
2022/11/16 12:05:18;;;;;;;10.52;3.40;;;13.30;99.90;;;;;;5091468;28;20048;-48
2022/11/16 12:08:02;;;;;;;13.75;3.70;;;13.30;99.90;;;;;;5106741;27;20072;-47
2022/11/16 12:10:47;;;;;;;9.88;3.45;;;13.20;99.90;;;;;;5113174;27;20471;-47
2022/11/16 12:13:12;;;;;;;;;;;13.00;99.90;;;;;;5094945;28;20466;-49
2022/11/16 12:15:53;;;;;;;12.00;2.80;;;13.00;99.90;;;;;;5112069;28;19915;-47
2022/11/16 12:18:49;;;;;;;15.68;3.67;;;13.10;99.90;;;;;;5112483;28;20176;-50
2022/11/16 12:21:29;;;;;;;11.05;3.08;;;13.30;99.90;;;;;;5112321;28;20550;-48
2022/11/16 12:24:08;;;;;;;11.65;2.75;;;13.50;99.90;;;;;;5112301;28;20035;-50
2022/11/16 12:26:41;;;;;;;9.05;2.75;;;13.80;99.90;;;;;;5112297;28;20046;-48
2022/11/16 12:29:41;;;;;;;8.60;3.20;;;13.90;99.90;;;;;;5112183;28;20052;-49
2022/11/16 12:32:15;;;;;;;13.40;3.08;;;14.00;99.90;;;;;;5112632;27;20042;-47
2022/11/16 12:35:06;;;;;;;10.10;2.55;;;14.20;99.90;;;;;;5114108;27;20047;-47
2022/11/16 12:37:39;;;;;;;9.10;2.53;;;14.20;99.90;;;;;;5111028;28;20059;-47
2022/11/16 12:40:29;;;;;;;11.10;2.90;;;14.40;99.90;;;;;;5111929;28;20563;-46
2022/11/16 12:43:21;;;;;;;11.35;2.75;;;14.50;99.90;;;;;;5112271;27;20300;-47
2022/11/16 12:45:51;;;;;;;9.98;2.45;;;14.70;99.90;;;;;;5112152;28;20039;-48
2022/11/16 12:48:36;;;;;;;11.90;2.72;;;14.70;99.90;;;;;;5112180;27;20079;-49
2022/11/16 12:51:15;;;;;;;9.20;2.53;;;14.40;99.90;;;;;;5111922;27;20378;-48
2022/11/16 12:53:59;;;;;;;10.65;2.72;;;14.40;99.90;;;;;;5111582;28;20495;-47
2022/11/16 12:56:47;;;;;;;9.95;2.65;;;14.20;99.90;;;;;;5111792;27;20047;-48
2022/11/16 12:59:46;;;;;;;9.52;2.70;;;14.30;99.90;;;;;;5092204;28;20047;-50
2022/11/16 13:02:23;;;;;;;8.65;2.88;;;14.30;99.90;;;;;;5077992;28;20487;-48
2022/11/16 13:04:57;;;;;;;8.90;2.30;;;14.60;99.90;;;;;;5094398;28;20096;-47
2022/11/16 13:07:33;;;;;;;;;;;14.70;99.90;;;;;;5095299;28;20082;-48
2022/11/16 13:10:11;;;;;;;10.48;2.30;;;14.80;99.90;;;;;;5111224;27;19934;-50
2022/11/16 13:12:38;;;;;;;9.00;2.47;;;14.90;99.90;;;;;;5111900;27;20070;-48
2022/11/16 13:15:04;;;;;;;8.55;2.40;;;14.90;99.90;;;;;;5112072;28;20576;-50
2022/11/16 13:17:37;;;;;;;9.32;2.50;;;14.90;99.90;;;;;;5110752;27;20039;-49
2022/11/16 13:20:27;;;;;;;7.87;2.30;;;15.00;99.90;;;;;;5093380;28;20028;-49
2022/11/16 13:23:14;;;;;;;8.27;2.67;;;14.90;99.90;;;;;;5111508;28;20485;-48
2022/11/16 13:26:11;;;;;;;10.88;2.53;;;14.70;99.90;;;;;;5093195;28;20448;-49
2022/11/16 13:28:41;;;;;;;8.88;2.58;;;14.60;99.90;;;;;;5111342;28;20032;-48
2022/11/16 13:31:12;;;;;;;10.93;2.70;;;14.50;99.90;;;;;;5111544;28;20340;-49